Time;durP1;ratioP1;P1;durP2;ratioP2;P2;SDS_P1;SDS_P2;PMS_P1;PMS_P2;Temp;Humidity;BMP_temperature;BMP_pressure;BME280_temperature;BME280_humidity;BME280_pressure;Samples;Min_cycle;Max_cycle;Signal;HPM_P1;HPM_P2
2022/05/18 21:21:03;;;;;;;;;;;;;;;20.53;60.38;101826.78;6074013;23;2094019;-79
2022/05/18 21:23:28;;;;;;;;;;;;;;;20.49;58.15;101825.19;6127049;23;19920;-75
2022/05/18 21:25:53;;;;;;;;;;;;;;;20.45;59.85;101819.09;6103624;23;19917;-75
2022/05/18 21:28:19;;;;;;;;;;;;;;;20.41;60.55;101823.66;6103790;23;19991;-75
2022/05/18 21:30:45;;;;;;;;;;;;;;;20.35;60.05;101817.69;6098726;23;19995;-74
2022/05/18 21:33:12;;;;;;;;;;;;;;;20.31;59.31;101816.06;6123328;23;20181;-74
2022/05/18 21:35:37;;;;;;;;;;;;;;;20.27;60.13;101820.66;6126126;23;20223;-75
2022/05/18 21:38:03;;;;;;;;;;;;;;;20.24;60.43;101823.41;6103719;23;20341;-74
2022/05/18 21:40:31;;;;;;;;;;;;;;;20.19;60.80;101822.72;6124445;23;19919;-74
2022/05/18 21:42:56;;;;;;;;;;;;;;;20.15;61.14;101815.78;6124890;23;20006;-74
2022/05/18 21:45:22;;;;;;;;;;;;;;;20.10;61.37;101823.94;6102577;23;19913;-73
2022/05/18 21:47:47;;;;;;;;;;;;;;;20.04;61.51;101822.34;6102435;23;19924;-73
2022/05/18 21:50:13;;;;;;;;;;;;;;;20.01;61.63;101821.59;6103344;23;19935;-73
2022/05/18 21:52:39;;;;;;;;;;;;;;;19.97;62.02;101823.50;6101534;23;19919;-74
2022/05/18 21:55:05;;;;;;;;;;;;;;;19.95;61.20;101817.34;6102502;23;19916;-74
2022/05/18 21:57:31;;;;;;;;;;;;;;;19.93;62.13;101821.88;6101057;23;20310;-73
2022/05/18 21:59:57;;;;;;;;;;;;;;;19.90;62.17;101822.84;6097829;23;20327;-74
2022/05/18 22:02:28;;;;;;;;;;;;;;;19.88;61.75;101818.50;6097564;23;19917;-73
2022/05/18 22:04:53;;;;;;;;;;;;;;;19.85;62.11;101813.28;6119881;23;20290;-74
2022/05/18 22:07:18;;;;;;;;;;;;;;;19.82;62.47;101803.63;6101824;23;20366;-74
2022/05/18 22:09:44;;;;;;;;;;;;;;;19.80;62.49;101804.63;6126655;23;20215;-75
2022/05/18 22:12:14;;;;;;;;;;;;;;;19.76;59.18;101798.50;6102848;23;19998;-73
2022/05/18 22:14:40;;;;;;;;;;;;;;;19.71;60.76;101801.31;6127097;23;19909;-74
2022/05/18 22:17:06;;;;;;;;;;;;;;;19.69;61.16;101802.28;6128148;23;19919;-74
2022/05/18 22:19:31;;;;;;;;;;;;;;;19.65;61.71;101796.22;6101405;23;19913;-74
2022/05/18 22:22:01;;;;;;;;;;;;;;;19.61;61.99;101793.69;6103136;23;19967;-74
2022/05/18 22:24:28;;;;;;;;;;;;;;;19.58;60.50;101794.66;6126881;23;19942;-74
2022/05/18 22:26:55;;;;;;;;;;;;;;;19.56;60.45;101785.88;6128256;23;19917;-74
2022/05/18 22:29:20;;;;;;;;;;;;;;;19.53;61.29;101791.31;6102412;23;19913;-74
2022/05/18 22:31:47;;;;;;;;;;;;;;;19.49;63.25;101787.00;6126312;23;19999;-75
2022/05/18 22:34:13;;;;;;;;;;;;;;;19.44;62.55;101776.56;6102641;23;20238;-75
2022/05/18 22:36:38;;;;;;;;;;;;;;;19.39;63.10;101779.38;6128076;23;19935;-74
2022/05/18 22:39:05;;;;;;;;;;;;;;;19.34;63.65;101776.00;6126763;23;19913;-73
2022/05/18 22:41:31;;;;;;;;;;;;;;;19.29;62.73;101769.94;6126154;23;19968;-75
2022/05/18 22:43:57;;;;;;;;;;;;;;;19.25;63.59;101773.66;6127765;23;19920;-74
2022/05/18 22:46:22;;;;;;;;;;;;;;;19.21;61.53;101769.34;6127781;23;20208;-74
2022/05/18 22:48:48;;;;;;;;;;;;;;;19.15;60.70;101753.59;6126316;23;19979;-74
2022/05/18 22:51:14;;;;;;;;;;;;;;;19.09;62.41;101759.13;6102776;23;19944;-74
2022/05/18 22:53:39;;;;;;;;;;;;;;;19.03;62.49;101768.16;6127279;23;19960;-76
2022/05/18 22:56:05;;;;;;;;;;;;;;;18.96;63.83;101764.81;6101444;23;19912;-74
2022/05/18 22:58:30;;;;;;;;;;;;;;;18.94;63.79;101765.81;6103386;23;19944;-74
2022/05/18 23:00:56;;;;;;;;;;;;;;;18.89;63.00;101762.41;6126234;23;19928;-73
2022/05/18 23:03:21;;;;;;;;;;;;;;;18.84;63.53;101754.56;6102294;23;20004;-75
2022/05/18 23:05:47;;;;;;;;;;;;;;;18.82;63.40;101751.09;6126515;23;19912;-73
2022/05/18 23:08:13;;;;;;;;;;;;;;;18.85;63.16;101745.69;6127100;23;19916;-74
2022/05/18 23:10:39;;;;;;;;;;;;;;;18.75;64.09;101738.91;6125502;23;19915;-74
2022/05/18 23:13:04;;;;;;;;;;;;;;;18.72;62.70;101739.91;6102628;23;19923;-75
2022/05/18 23:15:31;;;;;;;;;;;;;;;18.73;63.55;101727.50;6102213;23;19971;-73
2022/05/18 23:17:57;;;;;;;;;;;;;;;18.68;63.46;101717.03;6102000;23;19913;-73
2022/05/18 23:20:31;;;;;;;;;;;;;;;18.62;63.54;101723.41;6126536;23;20228;-72
2022/05/18 23:25:40;;;;;;;;;;;;;;;18.52;64.92;101716.66;6131062;23;19971;-74
2022/05/18 23:28:05;;;;;;;;;;;;;;;18.51;64.73;101714.91;6102152;23;19920;-75
2022/05/18 23:30:32;;;;;;;;;;;;;;;18.46;64.14;101704.44;6101291;23;19913;-74
2022/05/18 23:32:58;;;;;;;;;;;;;;;18.44;64.40;101713.34;6126089;23;19913;-74
2022/05/18 23:35:23;;;;;;;;;;;;;;;18.40;64.68;101701.09;6101120;23;20406;-73
2022/05/18 23:37:49;;;;;;;;;;;;;;;18.36;64.69;101702.97;6126878;23;19919;-74
2022/05/18 23:40:14;;;;;;;;;;;;;;;18.37;64.85;101701.19;6103074;23;19919;-74
2022/05/18 23:42:42;;;;;;;;;;;;;;;18.31;65.87;101705.75;6126344;23;20323;-74
2022/05/18 23:45:08;;;;;;;;;;;;;;;18.29;64.44;101696.97;6102786;23;19939;-74
2022/05/18 23:47:33;;;;;;;;;;;;;;;18.23;65.87;101697.19;6125479;23;20323;-73
2022/05/18 23:49:58;;;;;;;;;;;;;;;18.22;65.03;101691.94;6101353;23;20322;-74
2022/05/18 23:52:24;;;;;;;;;;;;;;;18.17;65.81;101692.94;6101691;23;19908;-75
2022/05/18 23:54:49;;;;;;;;;;;;;;;18.14;66.28;101689.47;6126250;23;19917;-74
2022/05/18 23:57:20;;;;;;;;;;;;;;;18.12;65.40;101686.03;6103189;23;20220;-74
2022/05/18 23:59:47;;;;;;;;;;;;;;;18.09;67.41;101681.66;6126596;23;20345;-75
